Time;durP1;ratioP1;P1;durP2;ratioP2;P2;SDS_P1;SDS_P2;PMS_P1;PMS_P2;Temp;Humidity;BMP_temperature;BMP_pressure;BME280_temperature;BME280_humidity;BME280_pressure;Samples;Min_cycle;Max_cycle;Signal;HPM_P1;HPM_P2
2023/07/05 00:02:16;;;;;;;4.07;2.50;;;11.60;99.90;;;;;;5096913;28;20496;-91
2023/07/05 00:04:49;;;;;;;5.55;2.65;;;11.60;99.90;;;;;;5078441;28;20127;-91
2023/07/05 00:07:14;;;;;;;11.13;4.60;;;11.50;99.90;;;;;;5078939;28;20028;-93
2023/07/05 00:09:43;;;;;;;7.03;2.50;;;11.50;99.90;;;;;;5096428;28;20064;-91
2023/07/05 00:12:09;;;;;;;3.63;2.17;;;11.50;99.90;;;;;;5079519;28;20032;-92
2023/07/05 00:14:34;;;;;;;6.78;2.90;;;11.40;99.90;;;;;;5097773;28;20030;-93
2023/07/05 00:17:00;;;;;;;5.10;2.30;;;11.40;99.90;;;;;;5098328;28;20036;-92
2023/07/05 00:19:33;;;;;;;3.65;2.53;;;11.30;99.90;;;;;;5080712;28;20024;-92
2023/07/05 00:21:59;;;;;;;6.30;2.85;;;11.30;99.90;;;;;;5107076;28;20028;-92
2023/07/05 00:24:27;;;;;;;4.97;2.40;;;11.30;99.90;;;;;;5110949;28;20104;-92
2023/07/05 00:26:53;;;;;;;4.18;2.42;;;11.30;99.90;;;;;;5088120;28;20029;-92
2023/07/05 00:29:18;;;;;;;4.82;2.35;;;11.20;99.90;;;;;;5081673;28;20021;-91
2023/07/05 00:31:47;;;;;;;3.38;2.13;;;11.20;99.90;;;;;;5095596;28;20029;-92
2023/07/05 00:34:13;;;;;;;6.57;2.13;;;11.10;99.90;;;;;;5079151;28;20541;-92
2023/07/05 00:36:41;;;;;;;6.20;2.45;;;11.00;99.90;;;;;;5099494;28;20071;-92
2023/07/05 00:39:10;;;;;;;7.85;2.30;;;11.00;99.90;;;;;;5082668;28;20024;-91
2023/07/05 00:41:36;;;;;;;5.60;2.00;;;10.90;99.90;;;;;;5100913;28;20070;-92
2023/07/05 00:44:01;;;;;;;4.20;2.38;;;10.90;99.90;;;;;;5083181;28;20378;-91
2023/07/05 00:46:29;;;;;;;3.60;2.47;;;10.80;99.90;;;;;;5081268;28;20027;-91
2023/07/05 00:49:02;;;;;;;5.57;2.35;;;10.80;99.90;;;;;;5097847;28;20074;-91
2023/07/05 00:51:43;;;;;;;7.93;2.65;;;10.70;99.90;;;;;;5098729;28;20487;-92
2023/07/05 00:54:10;;;;;;;5.68;2.13;;;10.70;99.90;;;;;;5097066;28;20056;-91
2023/07/05 00:56:50;;;;;;;5.47;2.20;;;10.70;99.90;;;;;;5080769;28;20024;-92
2023/07/05 00:59:18;;;;;;;4.55;2.17;;;10.60;99.90;;;;;;5080643;28;20038;-91
2023/07/05 01:01:44;;;;;;;11.68;3.15;;;10.60;99.90;;;;;;5080990;28;20027;-91
2023/07/05 01:04:10;;;;;;;6.35;2.70;;;10.50;99.90;;;;;;5094014;28;20036;-88
2023/07/05 01:06:36;;;;;;;7.57;2.55;;;10.50;99.90;;;;;;5080929;28;20045;-91
2023/07/05 01:09:04;;;;;;;5.95;2.30;;;10.40;99.90;;;;;;5087880;28;20031;-90
2023/07/05 01:11:51;;;;;;;7.80;2.90;;;10.40;99.90;;;;;;5106197;28;20028;-92
2023/07/05 01:14:22;;;;;;;5.75;2.22;;;10.30;99.90;;;;;;5086195;28;20040;-92
2023/07/05 01:16:57;;;;;;;3.28;2.20;;;10.20;99.90;;;;;;5098454;28;20032;-91
2023/07/05 01:19:31;;;;;;;5.07;2.10;;;10.20;99.90;;;;;;5106513;28;20028;-92
2023/07/05 01:22:17;;;;;;;6.57;2.88;;;10.20;99.90;;;;;;5101815;28;20039;-93
2023/07/05 01:25:07;;;;;;;5.75;3.15;;;10.10;99.90;;;;;;5081402;28;20245;-90
2023/07/05 01:27:33;;;;;;;;;;;10.10;99.90;;;;;;5100174;28;20028;-91
2023/07/05 01:30:30;;;;;;;5.55;3.10;;;10.10;99.90;;;;;;5103630;28;19912;-89
2023/07/05 01:33:20;;;;;;;5.50;3.65;;;10.00;99.90;;;;;;5100958;28;20020;-91
2023/07/05 01:35:49;;;;;;;6.80;3.57;;;10.00;99.90;;;;;;5096197;28;20016;-91
2023/07/05 01:38:15;;;;;;;6.85;3.00;;;10.00;99.90;;;;;;5097385;28;20020;-92
2023/07/05 01:40:44;;;;;;;37.55;4.00;;;9.90;99.90;;;;;;5079193;28;20558;-91
2023/07/05 01:43:13;;;;;;;13.63;3.30;;;9.80;99.90;;;;;;5096487;28;20070;-91
2023/07/05 01:45:59;;;;;;;8.90;3.67;;;9.80;99.90;;;;;;5095564;28;20035;-92
2023/07/05 01:48:41;;;;;;;5.90;2.97;;;9.80;99.90;;;;;;5097064;28;20095;-90
2023/07/05 01:51:57;;;;;;;4.00;2.80;;;9.70;99.90;;;;;;5077186;28;20028;-91
2023/07/05 01:54:39;;;;;;;7.13;3.60;;;9.60;99.90;;;;;;5051858;28;20396;-91
2023/07/05 01:57:39;;;;;;;4.28;2.85;;;9.60;99.90;;;;;;5078858;28;20024;-92
2023/07/05 02:00:10;;;;;;;6.47;2.75;;;9.60;99.90;;;;;;5082021;28;20036;-92
2023/07/05 02:02:59;;;;;;;6.63;2.95;;;9.50;99.90;;;;;;5093069;28;20035;-92
2023/07/05 02:05:29;;;;;;;5.38;3.63;;;9.50;99.90;;;;;;5073653;28;20481;-90
2023/07/05 02:07:56;;;;;;;8.05;3.38;;;9.50;99.90;;;;;;5076796;28;20113;-91
2023/07/05 02:10:23;;;;;;;5.25;3.10;;;9.50;99.90;;;;;;5076610;28;20028;-90
2023/07/05 02:12:51;;;;;;;5.68;3.17;;;9.50;99.90;;;;;;5077820;28;20012;-90
2023/07/05 02:15:17;;;;;;;6.88;3.10;;;9.40;99.90;;;;;;5074426;28;20150;-90
2023/07/05 02:17:43;;;;;;;5.13;2.90;;;9.40;99.90;;;;;;5078123;28;20051;-90
2023/07/05 02:20:09;;;;;;;7.32;3.30;;;9.40;99.90;;;;;;5077987;28;20131;-90
2023/07/05 02:22:34;;;;;;;5.40;3.03;;;9.40;99.90;;;;;;5078189;28;20044;-90
2023/07/05 02:25:00;;;;;;;4.90;3.13;;;9.40;99.90;;;;;;5093571;28;20554;-90
2023/07/05 02:27:28;;;;;;;8.77;3.25;;;9.40;99.90;;;;;;5079552;28;20020;-91
2023/07/05 02:29:56;;;;;;;6.93;3.05;;;9.30;99.90;;;;;;5095672;28;20531;-89
2023/07/05 02:32:22;;;;;;;6.00;2.97;;;9.30;99.90;;;;;;5092487;28;20069;-91
2023/07/05 02:34:47;;;;;;;11.68;3.30;;;9.30;99.90;;;;;;5075319;28;20024;-90
2023/07/05 02:37:14;;;;;;;6.40;3.20;;;9.30;99.90;;;;;;5075352;28;20036;-89
2023/07/05 02:39:41;;;;;;;9.68;3.28;;;9.30;99.90;;;;;;5075348;28;20022;-90
2023/07/05 02:42:08;;;;;;;8.00;3.28;;;9.30;99.90;;;;;;5075644;28;20047;-91
2023/07/05 02:44:34;;;;;;;9.75;3.35;;;9.30;99.90;;;;;;5093460;28;20024;-90
2023/07/05 02:47:01;;;;;;;7.40;3.30;;;9.30;99.90;;;;;;5095361;28;20031;-89
2023/07/05 02:49:26;;;;;;;9.90;3.60;;;9.30;99.90;;;;;;5087386;28;20012;-88
2023/07/05 02:51:53;;;;;;;8.80;3.65;;;9.20;99.90;;;;;;5105332;28;20059;-90
2023/07/05 02:54:18;;;;;;;5.97;3.90;;;9.30;99.90;;;;;;5076561;28;20082;-90
2023/07/05 02:56:44;;;;;;;10.77;4.38;;;9.30;99.90;;;;;;5076214;28;20016;-90
2023/07/05 02:59:10;;;;;;;6.25;3.50;;;9.30;99.90;;;;;;5092806;28;20024;-90
2023/07/05 03:01:35;;;;;;;6.25;2.90;;;9.30;99.90;;;;;;5076335;28;20107;-91
2023/07/05 03:04:04;;;;;;;7.45;3.25;;;9.30;99.90;;;;;;5105814;28;20068;-90
2023/07/05 03:06:29;;;;;;;9.90;3.55;;;9.20;99.90;;;;;;5075651;28;20052;-90
2023/07/05 03:08:55;;;;;;;15.00;4.30;;;9.20;99.90;;;;;;5075016;28;20054;-90
2023/07/05 03:11:20;;;;;;;5.25;3.45;;;9.20;99.90;;;;;;5075352;28;20024;-89
2023/07/05 03:13:46;;;;;;;4.13;2.75;;;9.20;99.90;;;;;;5092506;28;20477;-89
2023/07/05 03:16:12;;;;;;;6.32;3.35;;;9.20;99.90;;;;;;5093317;28;20029;-90
2023/07/05 03:18:40;;;;;;;7.32;3.70;;;9.10;99.90;;;;;;5101797;28;20350;-91
2023/07/05 03:21:06;;;;;;;8.02;4.05;;;9.20;99.90;;;;;;5083946;28;20052;-90
2023/07/05 03:23:31;;;;;;;8.80;4.60;;;9.20;99.90;;;;;;5081368;28;20081;-91
2023/07/05 03:26:00;;;;;;;13.38;6.40;;;9.20;99.90;;;;;;5083027;28;20024;-89
2023/07/05 03:28:28;;;;;;;12.15;5.55;;;9.20;99.90;;;;;;5086927;28;20024;-90
2023/07/05 03:31:16;;;;;;;8.27;4.90;;;9.20;99.90;;;;;;5087100;28;20024;-91
2023/07/05 03:33:42;;;;;;;9.15;5.20;;;9.30;99.90;;;;;;5105873;28;20059;-90
2023/07/05 03:36:17;;;;;;;24.63;6.82;;;9.30;99.90;;;;;;5086016;28;20028;-90
2023/07/05 03:38:42;;;;;;;12.55;5.82;;;9.30;99.90;;;;;;5082480;28;20026;-90
2023/07/05 03:41:17;;;;;;;15.73;5.90;;;9.30;99.90;;;;;;5083201;28;20413;-90
2023/07/05 03:43:46;;;;;;;14.20;6.43;;;9.40;99.90;;;;;;5100711;28;20044;-91
2023/07/05 03:46:13;;;;;;;11.07;6.93;;;9.40;99.90;;;;;;5083671;28;20074;-91
2023/07/05 03:48:42;;;;;;;10.27;6.13;;;9.40;99.90;;;;;;5077100;28;20055;-91
2023/07/05 03:51:10;;;;;;;9.25;5.82;;;9.40;99.90;;;;;;5082656;28;20546;-90
2023/07/05 03:53:36;;;;;;;14.18;6.25;;;9.50;99.90;;;;;;5082455;28;20407;-91
2023/07/05 03:56:05;;;;;;;19.20;7.25;;;9.50;99.90;;;;;;5082545;28;20040;-91
2023/07/05 03:58:31;;;;;;;15.57;6.78;;;9.50;99.90;;;;;;5082537;28;20087;-91
2023/07/05 04:01:14;;;;;;;12.25;6.82;;;9.60;99.90;;;;;;5082527;28;20048;-90
2023/07/05 04:04:00;;;;;;;14.75;7.07;;;9.60;99.90;;;;;;5078978;28;20024;-90
2023/07/05 04:06:28;;;;;;;16.02;6.93;;;9.70;99.90;;;;;;5080557;28;20031;-90
2023/07/05 04:08:54;;;;;;;14.73;7.10;;;9.70;99.90;;;;;;5081220;28;20465;-91
2023/07/05 04:11:20;;;;;;;13.43;6.90;;;9.80;99.90;;;;;;5099582;28;20024;-91
2023/07/05 04:13:48;;;;;;;14.80;6.93;;;9.80;99.90;;;;;;5097738;28;20036;-91
2023/07/05 04:16:16;;;;;;;18.38;8.13;;;9.90;99.90;;;;;;5081396;28;20020;-91
2023/07/05 04:18:44;;;;;;;12.32;7.57;;;9.90;99.90;;;;;;5099476;28;20024;-90
2023/07/05 04:21:11;;;;;;;12.75;7.15;;;10.00;99.90;;;;;;5099852;28;20024;-91
2023/07/05 04:23:38;;;;;;;10.98;5.78;;;10.00;99.90;;;;;;5080530;28;20028;-91
2023/07/05 04:26:07;;;;;;;16.65;7.82;;;10.00;99.90;;;;;;5096050;28;20028;-92
2023/07/05 04:28:37;;;;;;;11.18;4.65;;;10.10;99.90;;;;;;5093727;28;20024;-90
2023/07/05 04:31:04;;;;;;;9.90;4.33;;;10.10;99.90;;;;;;5103743;28;20032;-92
2023/07/05 04:33:30;;;;;;;6.93;3.35;;;10.10;99.90;;;;;;5080199;28;20270;-90
2023/07/05 04:35:57;;;;;;;6.95;3.60;;;10.00;99.90;;;;;;5078867;28;20030;-90
2023/07/05 04:38:24;;;;;;;9.68;3.65;;;10.00;99.90;;;;;;5078471;28;20024;-89
2023/07/05 04:40:49;;;;;;;11.15;4.22;;;9.90;99.90;;;;;;5077510;28;20135;-91
2023/07/05 04:43:15;;;;;;;9.98;4.80;;;10.00;99.90;;;;;;5086206;28;20070;-90
2023/07/05 04:45:41;;;;;;;10.05;4.97;;;10.00;99.90;;;;;;5082154;28;20027;-90
2023/07/05 04:48:06;;;;;;;12.02;6.07;;;10.00;99.90;;;;;;5105069;28;20028;-90
2023/07/05 04:50:32;;;;;;;10.23;6.10;;;10.00;99.90;;;;;;5077042;28;20032;-90
2023/07/05 04:52:58;;;;;;;14.38;6.22;;;10.10;99.90;;;;;;5076758;28;20023;-89
2023/07/05 04:55:24;;;;;;;11.40;6.63;;;10.10;99.90;;;;;;5076734;28;20030;-90
2023/07/05 04:57:50;;;;;;;7.18;4.50;;;10.10;99.90;;;;;;5076542;28;20020;-90
2023/07/05 05:00:16;;;;;;;10.93;5.22;;;10.10;99.90;;;;;;5076390;28;20016;-91
2023/07/05 05:02:42;;;;;;;12.85;6.93;;;10.10;99.90;;;;;;5076645;28;20024;-90
2023/07/05 05:05:08;;;;;;;13.50;7.10;;;10.20;99.90;;;;;;5094207;28;20123;-88
2023/07/05 05:07:34;;;;;;;10.68;7.68;;;10.20;99.90;;;;;;5094724;28;20061;-89
2023/07/05 05:10:01;;;;;;;13.05;6.78;;;10.20;99.90;;;;;;5076794;28;20480;-89
2023/07/05 05:12:27;;;;;;;15.60;8.50;;;10.20;99.90;;;;;;5095116;28;20023;-90
2023/07/05 05:14:53;;;;;;;11.65;8.20;;;10.30;99.90;;;;;;5076170;28;20024;-91
2023/07/05 05:17:19;;;;;;;14.40;8.68;;;10.30;99.90;;;;;;5076530;28;20024;-90
2023/07/05 05:19:44;;;;;;;11.65;8.07;;;10.40;99.90;;;;;;5076390;28;20032;-89
2023/07/05 05:22:11;;;;;;;13.68;8.05;;;10.40;99.90;;;;;;5093443;28;20032;-90
2023/07/05 05:24:38;;;;;;;17.08;9.80;;;10.50;99.90;;;;;;5076316;28;20032;-90
2023/07/05 05:27:04;;;;;;;18.70;10.40;;;10.50;99.90;;;;;;5076868;28;20044;-90
2023/07/05 05:29:30;;;;;;;20.33;9.23;;;10.60;99.90;;;;;;5076087;28;20024;-89
2023/07/05 05:31:57;;;;;;;19.58;11.13;;;10.70;99.90;;;;;;5076252;28;20027;-90
2023/07/05 05:34:25;;;;;;;18.33;11.27;;;10.80;99.90;;;;;;5093959;28;20070;-90
2023/07/05 05:36:52;;;;;;;12.32;10.20;;;10.80;99.90;;;;;;5092927;28;20047;-91
2023/07/05 05:39:18;;;;;;;19.75;10.27;;;10.90;99.90;;;;;;5076040;28;20020;-91
2023/07/05 05:41:44;;;;;;;19.52;10.68;;;11.00;99.90;;;;;;5091972;28;20044;-90
2023/07/05 05:44:10;;;;;;;24.75;10.30;;;11.10;99.90;;;;;;5096597;28;20043;-92
2023/07/05 05:46:36;;;;;;;17.73;8.90;;;11.10;99.90;;;;;;5080613;28;20080;-91
2023/07/05 05:49:02;;;;;;;14.20;7.65;;;11.20;99.90;;;;;;5079981;28;20032;-92
2023/07/05 05:51:27;;;;;;;13.13;8.70;;;11.20;99.90;;;;;;5096305;28;20098;-92
2023/07/05 05:53:53;;;;;;;14.82;7.38;;;11.30;99.90;;;;;;5097329;28;20491;-92
2023/07/05 05:56:19;;;;;;;13.73;7.55;;;11.30;99.90;;;;;;5080254;28;20016;-91
2023/07/05 05:58:45;;;;;;;12.23;6.32;;;11.40;99.90;;;;;;5079897;28;20107;-91
2023/07/05 06:01:12;;;;;;;12.05;5.88;;;11.50;99.90;;;;;;5085324;28;20466;-91
2023/07/05 06:03:38;;;;;;;11.50;5.80;;;11.50;99.90;;;;;;5110797;28;20024;-90
2023/07/05 06:06:04;;;;;;;10.10;4.28;;;11.50;99.90;;;;;;5111027;28;20024;-91
2023/07/05 06:08:30;;;;;;;9.00;3.90;;;11.60;99.90;;;;;;5100427;28;20026;-90
2023/07/05 06:11:02;;;;;;;4.93;2.90;;;11.60;99.90;;;;;;5082814;28;20027;-92
2023/07/05 06:13:29;;;;;;;5.95;2.95;;;11.70;99.90;;;;;;5087416;28;20024;-91
2023/07/05 06:16:02;;;;;;;7.82;3.50;;;11.80;99.90;;;;;;5102785;28;20095;-91
2023/07/05 06:18:28;;;;;;;6.68;2.88;;;12.00;99.90;;;;;;5079032;28;20504;-92
2023/07/05 06:20:55;;;;;;;6.38;2.80;;;12.00;99.90;;;;;;5077315;28;20032;-92
2023/07/05 06:23:21;;;;;;;5.68;2.38;;;12.10;99.90;;;;;;5094067;28;20269;-92
2023/07/05 06:25:48;;;;;;;5.82;2.50;;;12.20;99.90;;;;;;5076836;28;20404;-94
2023/07/05 06:28:18;;;;;;;7.65;2.70;;;12.30;99.90;;;;;;5071929;28;20024;-93
2023/07/05 06:30:47;;;;;;;7.22;3.25;;;12.30;99.90;;;;;;5074811;28;20024;-93
2023/07/05 06:33:14;;;;;;;5.53;2.42;;;12.40;99.90;;;;;;5108531;28;20028;-94
2023/07/05 06:35:40;;;;;;;8.05;2.80;;;12.40;99.90;;;;;;5102778;28;20024;-93
2023/07/05 06:38:06;;;;;;;5.80;3.15;;;12.40;99.90;;;;;;5103014;28;20081;-93
2023/07/05 06:40:32;;;;;;;5.43;2.47;;;12.50;99.90;;;;;;5083477;28;20055;-93
2023/07/05 06:42:58;;;;;;;7.57;2.90;;;12.50;99.90;;;;;;5079872;28;20107;-93
2023/07/05 06:45:24;;;;;;;7.13;2.70;;;12.50;99.90;;;;;;5081445;28;20029;-95
2023/07/05 06:47:50;;;;;;;10.57;3.63;;;12.60;99.90;;;;;;5076837;28;20418;-93
2023/07/05 06:50:16;;;;;;;4.57;2.80;;;12.70;99.90;;;;;;5093769;28;20023;-93
2023/07/05 06:52:42;;;;;;;12.23;2.90;;;12.70;99.90;;;;;;5095165;28;20024;-93
2023/07/05 06:55:08;;;;;;;7.68;2.60;;;12.70;99.90;;;;;;5096549;28;20114;-93
2023/07/05 06:57:33;;;;;;;11.90;3.38;;;12.80;99.90;;;;;;5079381;28;20035;-93
2023/07/05 06:59:59;;;;;;;3.30;2.35;;;12.90;99.90;;;;;;5096560;28;20101;-94
2023/07/05 07:02:25;;;;;;;7.30;2.75;;;12.90;99.90;;;;;;5075259;28;20065;-91
2023/07/05 07:04:50;;;;;;;8.10;2.58;;;12.90;99.90;;;;;;5071495;28;20036;-92
2023/07/05 07:07:16;;;;;;;7.50;2.80;;;13.00;99.90;;;;;;5069441;28;20355;-94
2023/07/05 07:09:42;;;;;;;5.90;2.70;;;13.00;99.90;;;;;;5080968;28;20016;-93
2023/07/05 07:12:08;;;;;;;8.55;2.40;;;13.00;99.90;;;;;;5079573;28;20046;-93
2023/07/05 07:14:34;;;;;;;7.03;2.50;;;13.00;99.90;;;;;;5079121;28;20024;-93
2023/07/05 07:17:00;;;;;;;6.10;2.47;;;13.00;99.90;;;;;;5097754;28;20085;-92
2023/07/05 07:19:25;;;;;;;6.55;2.88;;;13.00;99.90;;;;;;5079511;28;20020;-92
2023/07/05 07:21:51;;;;;;;10.68;3.33;;;12.90;99.90;;;;;;5078641;28;20542;-92
2023/07/05 07:24:17;;;;;;;8.38;3.08;;;12.90;99.90;;;;;;5097119;28;20119;-93
2023/07/05 07:26:43;;;;;;;7.65;3.78;;;12.90;99.90;;;;;;5072076;28;20024;-92
2023/07/05 07:29:10;;;;;;;7.68;3.47;;;13.00;99.90;;;;;;5094404;28;20028;-93
2023/07/05 07:31:36;;;;;;;5.25;3.00;;;13.00;99.90;;;;;;5074116;28;20024;-93
2023/07/05 07:34:04;;;;;;;9.32;3.25;;;13.00;99.90;;;;;;5087436;28;20086;-93
2023/07/05 07:36:31;;;;;;;4.72;2.80;;;13.00;99.90;;;;;;5077782;28;20028;-93
2023/07/05 07:38:58;;;;;;;7.97;2.85;;;13.00;99.90;;;;;;5099655;28;20031;-94
2023/07/05 07:41:26;;;;;;;5.15;2.92;;;13.00;99.90;;;;;;5080617;28;20082;-92
2023/07/05 07:43:54;;;;;;;5.03;2.30;;;13.00;99.90;;;;;;5080421;28;20047;-93
2023/07/05 07:46:22;;;;;;;5.68;2.17;;;13.00;99.90;;;;;;5078453;28;20067;-95
2023/07/05 07:48:51;;;;;;;5.10;1.80;;;12.90;99.90;;;;;;5082222;28;20030;-94
2023/07/05 07:51:17;;;;;;;5.15;1.85;;;12.90;99.90;;;;;;5077332;28;20024;-94
2023/07/05 07:53:43;;;;;;;3.70;2.03;;;12.90;99.90;;;;;;5077867;28;20047;-93
2023/07/05 07:56:14;;;;;;;3.28;1.80;;;12.90;99.90;;;;;;5092847;28;20052;-92
2023/07/05 07:58:40;;;;;;;4.43;1.73;;;12.90;99.90;;;;;;5077727;28;20028;-87
2023/07/05 08:01:14;;;;;;;3.22;1.85;;;12.90;99.90;;;;;;5107068;28;20039;-93
2023/07/05 08:03:40;;;;;;;5.82;1.85;;;13.00;99.90;;;;;;5061652;28;20036;-94
2023/07/05 08:06:06;;;;;;;4.00;1.65;;;13.10;99.90;;;;;;5078541;28;20059;-94
2023/07/05 08:08:33;;;;;;;9.55;1.77;;;13.10;99.90;;;;;;5080259;28;20024;-92
2023/07/05 08:10:59;;;;;;;2.70;1.50;;;13.20;99.90;;;;;;5102351;28;20040;-92
2023/07/05 08:13:24;;;;;;;3.55;1.65;;;13.30;99.90;;;;;;5086334;28;20028;-94
2023/07/05 08:15:50;;;;;;;2.20;1.42;;;13.40;99.90;;;;;;5079316;28;20026;-94
2023/07/05 08:18:17;;;;;;;7.47;1.70;;;13.40;99.90;;;;;;5080579;28;20024;-91
2023/07/05 08:20:43;;;;;;;3.90;1.70;;;13.60;99.90;;;;;;5097570;28;20051;-93
2023/07/05 08:23:09;;;;;;;4.30;1.77;;;13.70;99.90;;;;;;5080351;28;20027;-93
2023/07/05 08:25:37;;;;;;;5.07;1.50;;;13.80;99.90;;;;;;5080870;28;20054;-94
2023/07/05 08:28:02;;;;;;;2.78;1.88;;;14.00;99.90;;;;;;5077393;28;20036;-93
2023/07/05 08:30:28;;;;;;;3.47;1.65;;;14.10;99.90;;;;;;5098191;28;20077;-93
2023/07/05 08:32:54;;;;;;;4.53;1.30;;;14.30;99.90;;;;;;5078669;28;20063;-92
2023/07/05 08:35:19;;;;;;;3.38;1.58;;;14.40;99.90;;;;;;5078226;28;20032;-94
2023/07/05 08:37:48;;;;;;;4.13;1.35;;;14.50;99.90;;;;;;5097818;28;20036;-95
2023/07/05 08:40:15;;;;;;;8.35;2.03;;;14.50;99.90;;;;;;5079777;28;20031;-94
2023/07/05 08:42:58;;;;;;;4.18;1.50;;;14.50;99.90;;;;;;5077684;28;20016;-94
2023/07/05 08:45:31;;;;;;;3.25;1.42;;;14.60;99.90;;;;;;5091123;28;20484;-94
2023/07/05 08:48:02;;;;;;;5.57;1.90;;;14.60;99.90;;;;;;5076520;28;20048;-93
2023/07/05 08:50:35;;;;;;;3.22;1.58;;;14.70;99.90;;;;;;5074808;28;20107;-94
2023/07/05 08:53:10;;;;;;;3.10;1.42;;;14.80;99.90;;;;;;5095263;28;20034;-94
2023/07/05 08:55:44;;;;;;;3.35;1.42;;;14.80;99.90;;;;;;5077132;28;20438;-92
2023/07/05 08:58:13;;;;;;;4.68;1.25;;;14.90;99.90;;;;;;5076957;28;20012;-93
2023/07/05 09:01:03;;;;;;;1.60;0.90;;;14.80;99.90;;;;;;5077908;28;20028;-94
2023/07/05 09:03:29;;;;;;;1.63;1.00;;;14.70;99.90;;;;;;5076457;28;20035;-92
2023/07/05 09:06:24;;;;;;;1.90;0.98;;;14.70;99.90;;;;;;5094921;28;20026;-94
2023/07/05 09:08:58;;;;;;;2.28;1.52;;;14.70;99.90;;;;;;5076564;28;20028;-94
2023/07/05 09:11:39;;;;;;;1.63;1.20;;;14.80;99.90;;;;;;5077026;28;20047;-93
2023/07/05 09:14:20;;;;;;;;;;;14.80;99.90;;;;;;5094867;28;20127;-93
2023/07/05 09:16:54;;;;;;;;;;;14.80;99.90;;;;;;5107028;28;19915;-94
2023/07/05 09:19:39;;;;;;;4.65;1.15;;;14.80;99.90;;;;;;5108324;28;19919;-93
2023/07/05 09:22:09;;;;;;;3.22;1.30;;;14.70;99.90;;;;;;5092813;28;20156;-94
2023/07/05 09:24:40;;;;;;;3.42;1.40;;;14.80;99.90;;;;;;5075573;28;20581;-94
2023/07/05 09:27:16;;;;;;;4.78;1.73;;;15.00;99.90;;;;;;5086627;28;20906;-94
2023/07/05 09:30:16;;;;;;;2.75;1.15;;;15.20;99.90;;;;;;5097604;28;20035;-92
2023/07/05 09:32:46;;;;;;;;;;;15.20;99.90;;;;;;5070770;28;20085;-94
2023/07/05 09:35:20;;;;;;;3.85;0.90;;;15.40;99.90;;;;;;5083582;28;19904;-93
2023/07/05 09:37:56;;;;;;;3.70;1.80;;;15.50;99.90;;;;;;5088999;28;20039;-93
2023/07/05 09:40:25;;;;;;;3.95;1.38;;;15.50;99.90;;;;;;5093935;28;20099;-92
2023/07/05 09:43:05;;;;;;;6.00;1.40;;;15.60;99.90;;;;;;5089556;28;20104;-93
2023/07/05 09:45:30;;;;;;;3.58;0.90;;;15.80;99.90;;;;;;5090286;28;20036;-93
2023/07/05 09:48:05;;;;;;;3.20;1.38;;;15.90;99.90;;;;;;5089107;28;20111;-94
2023/07/05 09:50:32;;;;;;;1.55;0.95;;;15.90;99.90;;;;;;5086800;28;20028;-92
2023/07/05 09:53:41;;;;;;;5.32;1.20;;;15.90;99.90;;;;;;5089174;28;20020;-94
2023/07/05 09:56:15;;;;;;;2.85;1.08;;;15.80;99.90;;;;;;5105193;28;20181;-94
2023/07/05 09:58:47;;;;;;;3.88;1.20;;;15.80;99.90;;;;;;5078488;28;20024;-93
2023/07/05 10:01:21;;;;;;;1.98;1.10;;;15.70;99.90;;;;;;5076120;28;20119;-92
2023/07/05 10:03:52;;;;;;;2.92;1.27;;;15.70;99.90;;;;;;5078331;28;20095;-94
2023/07/05 10:06:18;;;;;;;;;;;15.60;99.90;;;;;;5091654;28;20028;-93
2023/07/05 10:08:46;;;;;;;1.52;0.98;;;15.50;99.90;;;;;;5073663;28;19904;-93
2023/07/05 10:11:26;;;;;;;3.78;1.02;;;15.50;99.90;;;;;;5079656;28;20055;-93
2023/07/05 10:14:10;;;;;;;1.52;0.82;;;15.50;99.90;;;;;;5077414;28;20097;-91
2023/07/05 10:17:06;;;;;;;2.40;0.93;;;15.50;99.90;;;;;;5076961;28;20154;-93
2023/07/05 10:19:38;;;;;;;4.05;1.27;;;15.50;99.90;;;;;;5075148;28;20499;-92
2023/07/05 10:22:14;;;;;;;5.20;1.38;;;15.50;99.90;;;;;;5078319;28;20052;-94
2023/07/05 10:24:47;;;;;;;2.92;1.15;;;15.40;99.90;;;;;;5075529;28;20485;-94
2023/07/05 10:27:26;;;;;;;2.03;0.90;;;15.50;99.90;;;;;;5076513;28;20078;-93
2023/07/05 10:30:07;;;;;;;3.83;1.15;;;15.40;99.90;;;;;;5075925;28;20047;-94
2023/07/05 10:32:33;;;;;;;6.25;1.85;;;15.40;99.90;;;;;;5075078;28;20043;-92
2023/07/05 10:35:01;;;;;;;1.20;0.90;;;15.30;99.90;;;;;;5076768;28;20028;-94
2023/07/05 10:37:36;;;;;;;2.83;1.20;;;15.30;99.90;;;;;;5092469;28;20025;-94
2023/07/05 10:40:08;;;;;;;4.22;1.30;;;15.20;99.90;;;;;;5076853;28;20439;-93
2023/07/05 10:42:35;;;;;;;2.67;1.02;;;15.10;99.90;;;;;;5079027;28;20464;-93
2023/07/05 10:52:05;;;;;;;0.65;0.65;;;14.80;99.90;;;;;;5084831;22;20075;-75
2023/07/05 10:54:42;;;;;;;2.47;0.70;;;14.80;99.90;;;;;;5057027;28;20033;-75
2023/07/05 10:57:38;;;;;;;2.05;1.27;;;14.80;99.90;;;;;;5036475;28;20489;-76
2023/07/05 11:00:37;;;;;;;3.08;0.60;;;14.80;99.90;;;;;;5056791;28;20029;-74
2023/07/05 11:03:25;;;;;;;1.10;0.75;;;15.00;99.90;;;;;;5060087;28;20045;-74
2023/07/05 11:05:55;;;;;;;1.15;0.73;;;15.20;99.90;;;;;;5051100;28;20096;-74
2023/07/05 11:08:37;;;;;;;2.10;0.80;;;15.40;99.90;;;;;;5048676;28;20441;-75
2023/07/05 11:11:10;;;;;;;1.38;0.68;;;15.60;99.90;;;;;;5049532;28;20035;-75
2023/07/05 11:13:36;;;;;;;1.90;1.08;;;15.70;99.90;;;;;;5049067;28;20080;-75
2023/07/05 11:16:03;;;;;;;1.23;0.80;;;15.60;99.90;;;;;;5033280;28;20473;-75
2023/07/05 11:18:28;;;;;;;3.83;1.00;;;15.60;99.90;;;;;;5051229;28;20025;-75
2023/07/05 11:20:56;;;;;;;1.92;0.77;;;15.60;99.90;;;;;;5050939;28;20486;-74
2023/07/05 11:23:41;;;;;;;2.35;0.85;;;15.60;99.90;;;;;;5050795;28;20021;-74
2023/07/05 11:26:08;;;;;;;1.65;0.80;;;15.60;99.90;;;;;;5051412;28;20033;-74
2023/07/05 11:28:43;;;;;;;3.58;1.10;;;15.60;99.90;;;;;;5044568;28;20366;-74
2023/07/05 11:31:29;;;;;;;2.75;0.80;;;15.70;99.90;;;;;;5059585;28;20161;-74
2023/07/05 11:34:23;;;;;;;2.08;1.00;;;15.80;99.90;;;;;;5062279;28;20047;-75
2023/07/05 11:37:11;;;;;;;3.25;1.05;;;16.00;99.90;;;;;;5058768;28;20103;-74
2023/07/05 11:39:41;;;;;;;3.13;1.08;;;16.10;99.90;;;;;;5061536;28;20031;-73
2023/07/05 11:42:27;;;;;;;4.43;0.90;;;16.30;99.90;;;;;;5054146;28;20056;-73
2023/07/05 11:44:55;;;;;;;2.17;0.90;;;16.50;99.90;;;;;;5038440;28;20102;-73
2023/07/05 11:47:24;;;;;;;5.30;1.10;;;16.50;99.90;;;;;;5053756;28;20120;-73
2023/07/05 11:50:04;;;;;;;3.75;1.00;;;16.60;99.90;;;;;;5054289;28;20025;-73
2023/07/05 11:52:32;;;;;;;1.60;0.90;;;16.70;99.50;;;;;;5054737;28;20041;-73
2023/07/05 11:55:16;;;;;;;2.97;1.23;;;16.80;99.00;;;;;;5053737;28;20112;-73
2023/07/05 11:57:52;;;;;;;2.35;0.98;;;16.90;98.50;;;;;;5033517;28;20048;-72
2023/07/05 12:00:27;;;;;;;2.90;0.93;;;17.10;98.00;;;;;;5033037;28;20026;-73
2023/07/05 12:03:15;;;;;;;2.75;0.80;;;17.40;97.70;;;;;;5033352;28;20040;-72
2023/07/05 12:05:43;;;;;;;1.75;0.80;;;17.60;95.10;;;;;;5033276;28;20108;-73
2023/07/05 12:08:36;;;;;;;0.98;0.82;;;17.70;94.80;;;;;;5015469;28;20340;-72
2023/07/05 12:11:02;;;;;;;1.35;0.80;;;17.60;93.40;;;;;;5035287;28;20032;-72
2023/07/05 12:13:33;;;;;;;3.67;0.93;;;17.50;92.60;;;;;;5034659;28;20389;-73
2023/07/05 12:16:00;;;;;;;5.22;0.90;;;17.50;93.10;;;;;;5035077;28;20056;-73
2023/07/05 12:18:28;;;;;;;2.05;0.90;;;17.50;93.00;;;;;;5034747;28;20022;-73
2023/07/05 12:20:55;;;;;;;2.58;1.00;;;17.40;92.80;;;;;;5034896;28;20201;-73
2023/07/05 12:23:23;;;;;;;4.78;1.05;;;17.30;93.20;;;;;;5034342;28;20078;-73
2023/07/05 12:25:57;;;;;;;2.00;1.08;;;17.30;93.50;;;;;;5034356;28;20091;-73
2023/07/05 12:28:26;;;;;;;3.17;0.98;;;17.20;93.70;;;;;;5034724;28;20033;-73
2023/07/05 12:31:12;;;;;;;4.00;1.40;;;17.00;93.80;;;;;;5034391;28;20025;-72
2023/07/05 12:33:39;;;;;;;3.85;1.13;;;16.90;94.10;;;;;;5034320;28;20112;-73
2023/07/05 12:36:04;;;;;;;2.55;0.90;;;16.80;94.50;;;;;;5016589;28;20080;-71
2023/07/05 12:38:32;;;;;;;3.42;0.93;;;16.70;94.50;;;;;;5034048;28;20390;-71
2023/07/05 12:40:58;;;;;;;6.07;1.65;;;16.70;94.70;;;;;;5034430;28;20030;-72
2023/07/05 12:43:32;;;;;;;4.13;1.30;;;16.80;95.00;;;;;;5034184;28;20091;-72
2023/07/05 12:46:21;;;;;;;2.30;1.17;;;16.90;95.20;;;;;;5034272;28;20072;-72
2023/07/05 12:48:49;;;;;;;4.53;1.00;;;17.20;95.30;;;;;;5034207;28;20028;-71
2023/07/05 12:51:21;;;;;;;1.50;0.77;;;17.40;94.60;;;;;;5033803;28;20111;-71
2023/07/05 12:53:51;;;;;;;3.85;1.00;;;17.40;93.40;;;;;;5034223;28;20044;-73
2023/07/05 12:56:21;;;;;;;1.27;0.85;;;17.30;92.60;;;;;;5046554;28;20035;-72
2023/07/05 12:58:57;;;;;;;3.50;1.23;;;17.30;92.70;;;;;;5053767;28;20554;-73
2023/07/05 13:01:37;;;;;;;4.70;1.10;;;17.30;92.40;;;;;;5053725;28;20108;-71
2023/07/05 13:04:12;;;;;;;2.88;0.80;;;17.50;92.30;;;;;;5053959;28;20032;-72
2023/07/05 13:06:38;;;;;;;1.08;0.80;;;17.70;92.10;;;;;;5066065;28;20464;-71
2023/07/05 13:09:07;;;;;;;1.63;0.70;;;17.70;91.60;;;;;;5067011;28;20120;-72
2023/07/05 13:11:33;;;;;;;1.77;0.85;;;17.70;91.00;;;;;;5055371;28;20116;-72
2023/07/05 13:14:10;;;;;;;2.42;0.77;;;17.70;90.60;;;;;;5073769;28;20074;-72